Time;durP1;ratioP1;P1;durP2;ratioP2;P2;SDS_P1;SDS_P2;PMS_P1;PMS_P2;Temp;Humidity;BMP_temperature;BMP_pressure;BME280_temperature;BME280_humidity;BME280_pressure;Samples;Min_cycle;Max_cycle;Signal;HPM_P1;HPM_P2
2021/10/25 00:00:30;;;;;;;;;;;;;;;27.97;66.75;100988.56;5018206;28;66675;-37
2021/10/25 00:03:00;;;;;;;;;;;;;;;28.03;67.50;100982.38;5018137;28;70720;-37
2021/10/25 00:05:32;;;;;;;;;;;;;;;28.07;69.55;100978.25;5021646;28;66940;-37
2021/10/25 00:08:03;;;;;;;;;;;;;;;28.11;70.23;100984.09;5018278;28;68174;-37
2021/10/25 00:10:34;;;;;;;;;;;;;;;28.15;71.40;100981.81;5026251;28;67046;-38
2021/10/25 00:13:05;;;;;;;;;;;;;;;28.18;72.15;100981.41;5017298;28;70144;-36
2021/10/25 00:15:36;;;;;;;;;;;;;;;28.20;72.42;100980.19;5017162;28;66206;-36
2021/10/25 00:18:08;;;;;;;;;;;;;;;28.23;73.08;100981.66;5020250;28;70416;-36
2021/10/25 00:20:41;;;;;;;;;;;;;;;28.25;73.19;100976.88;5022193;28;66470;-37
2021/10/25 00:23:11;;;;;;;;;;;;;;;28.23;74.02;100987.88;5019176;28;69299;-37
2021/10/25 00:25:42;;;;;;;;;;;;;;;28.20;74.52;100984.75;5025450;28;64456;-37
2021/10/25 00:28:12;;;;;;;;;;;;;;;28.19;74.75;100983.91;5026218;28;70683;-38
2021/10/25 00:30:43;;;;;;;;;;;;;;;28.24;75.13;100988.72;5022558;28;66108;-36
2021/10/25 00:33:13;;;;;;;;;;;;;;;28.27;75.13;100999.09;4987517;28;69834;-37
2021/10/25 00:35:44;;;;;;;;;;;;;;;28.29;75.17;100991.63;5007533;28;64984;-37
2021/10/25 00:38:15;;;;;;;;;;;;;;;28.28;74.46;100995.38;5023817;28;69992;-36
2021/10/25 00:40:46;;;;;;;;;;;;;;;28.28;72.72;100995.38;5033653;28;65624;-36
2021/10/25 00:43:16;;;;;;;;;;;;;;;28.30;72.10;101004.09;5018331;28;70037;-36
2021/10/25 00:45:47;;;;;;;;;;;;;;;28.33;71.68;101006.38;5023262;28;66524;-36
2021/10/25 00:48:18;;;;;;;;;;;;;;;28.36;71.20;101014.09;5018077;28;70445;-36
2021/10/25 00:50:48;;;;;;;;;;;;;;;28.37;71.10;101015.75;5027491;28;66599;-36
2021/10/25 00:53:19;;;;;;;;;;;;;;;28.40;71.15;101025.31;5026233;28;69968;-36
2021/10/25 00:55:50;;;;;;;;;;;;;;;28.41;70.73;101022.41;5023258;28;65559;-36
2021/10/25 00:58:21;;;;;;;;;;;;;;;28.43;70.60;101031.16;5036919;28;70127;-36
2021/10/25 01:00:56;;;;;;;;;;;;;;;28.45;70.45;101034.50;5008879;28;66226;-36
2021/10/25 01:03:31;;;;;;;;;;;;;;;28.46;70.41;101036.16;5011013;28;70327;-37
2021/10/25 01:06:04;;;;;;;;;;;;;;;28.48;70.08;101028.72;5013370;28;65966;-36
2021/10/25 01:08:38;;;;;;;;;;;;;;;28.49;70.03;101035.75;4993101;28;70802;-36
2021/10/25 01:11:14;;;;;;;;;;;;;;;28.51;69.87;101033.69;5013343;28;66654;-36
2021/10/25 01:13:48;;;;;;;;;;;;;;;28.52;69.77;101029.97;5002303;28;70104;-36
2021/10/25 01:16:26;;;;;;;;;;;;;;;28.54;70.07;101029.78;5014046;28;66056;-37
2021/10/25 01:19:24;;;;;;;;;;;;;;;28.57;69.86;101042.03;4990933;28;70273;-36
2021/10/25 01:21:58;;;;;;;;;;;;;;;28.59;69.44;101042.66;5005442;28;65378;-36
2021/10/25 01:24:32;;;;;;;;;;;;;;;28.60;69.65;101041.63;4990587;28;70051;-36
2021/10/25 01:27:25;;;;;;;;;;;;;;;28.61;69.29;101043.28;5007999;28;65766;-36
2021/10/25 01:30:01;;;;;;;;;;;;;;;28.63;69.20;101046.63;4988739;28;70942;-36
2021/10/25 01:32:42;;;;;;;;;;;;;;;28.64;69.49;101034.78;5008640;28;66640;-36
2021/10/25 01:35:18;;;;;;;;;;;;;;;28.66;69.46;101038.13;4993314;28;70942;-36
2021/10/25 01:37:57;;;;;;;;;;;;;;;28.68;69.33;101033.34;5008486;28;65521;-36
2021/10/25 01:40:33;;;;;;;;;;;;;;;28.69;69.34;101035.00;4994606;28;70927;-36
2021/10/25 01:43:08;;;;;;;;;;;;;;;28.70;68.91;101034.00;4980093;28;66480;-36
2021/10/25 01:45:46;;;;;;;;;;;;;;;28.71;68.87;101033.78;4995136;28;70125;-36
2021/10/25 01:48:22;;;;;;;;;;;;;;;28.73;68.77;101042.50;5002581;28;66292;-36
2021/10/25 01:50:56;;;;;;;;;;;;;;;28.75;69.11;101045.00;5010353;28;69205;-36
2021/10/25 01:53:31;;;;;;;;;;;;;;;28.76;68.72;101052.06;4994145;28;66539;-36
2021/10/25 01:56:06;;;;;;;;;;;;;;;28.78;68.89;101054.56;4986655;28;70400;-36
2021/10/25 01:58:44;;;;;;;;;;;;;;;28.78;68.88;101050.00;5010242;28;65555;-36
2021/10/25 02:01:17;;;;;;;;;;;;;;;28.80;68.58;101042.53;4987702;28;69446;-36
2021/10/25 02:03:49;;;;;;;;;;;;;;;28.83;68.55;101046.69;5007886;28;65445;-35
2021/10/25 02:06:28;;;;;;;;;;;;;;;28.85;68.99;101044.63;5013220;28;70152;-35
2021/10/25 02:09:08;;;;;;;;;;;;;;;28.86;68.67;101040.88;5025487;28;66287;-35
2021/10/25 02:11:48;;;;;;;;;;;;;;;28.89;68.83;101045.88;5003238;28;69682;-37
2021/10/25 02:14:27;;;;;;;;;;;;;;;28.90;69.00;101053.78;5002093;28;66829;-36
2021/10/25 02:17:09;;;;;;;;;;;;;;;28.92;68.92;101054.41;5000955;28;69846;-36
2021/10/25 02:19:56;;;;;;;;;;;;;;;28.94;68.44;101049.63;4993263;28;65121;-35
2021/10/25 02:22:40;;;;;;;;;;;;;;;28.96;68.87;101052.97;5007650;28;69457;-36
2021/10/25 02:25:15;;;;;;;;;;;;;;;28.96;68.67;101050.25;5009230;28;66254;-35
2021/10/25 02:27:50;;;;;;;;;;;;;;;29.00;68.86;101060.66;5005611;28;70004;-37
2021/10/25 02:30:27;;;;;;;;;;;;;;;29.01;68.34;101048.84;5010779;28;65760;-36
2021/10/25 02:33:02;;;;;;;;;;;;;;;29.03;68.40;101044.03;4995861;28;69638;-36
2021/10/25 02:35:34;;;;;;;;;;;;;;;29.05;68.78;101034.75;5013344;28;66004;-36
2021/10/25 02:38:06;;;;;;;;;;;;;;;29.04;68.69;101026.84;4980665;28;70101;-37
2021/10/25 02:40:41;;;;;;;;;;;;;;;29.08;68.46;101031.63;5012776;28;67202;-36
2021/10/25 02:43:14;;;;;;;;;;;;;;;29.11;68.69;101038.50;5024614;28;70588;-36
2021/10/25 02:45:47;;;;;;;;;;;;;;;29.13;68.52;101025.63;5019606;28;65731;-35
2021/10/25 02:48:20;;;;;;;;;;;;;;;29.14;68.49;101022.72;5029834;28;70231;-35
2021/10/25 02:50:53;;;;;;;;;;;;;;;29.17;67.97;101021.47;5003814;28;67048;-36
2021/10/25 02:53:26;;;;;;;;;;;;;;;29.18;68.00;101017.75;5030337;28;70564;-35
2021/10/25 02:56:00;;;;;;;;;;;;;;;29.18;67.91;101004.22;5005648;28;66751;-36
2021/10/25 02:58:37;;;;;;;;;;;;;;;29.23;67.88;101011.72;5012776;28;70984;-36
2021/10/25 03:01:08;;;;;;;;;;;;;;;29.24;68.30;100998.00;4996603;28;65822;-36
2021/10/25 03:03:42;;;;;;;;;;;;;;;29.26;68.17;100998.63;5017543;28;69953;-36
2021/10/25 03:06:15;;;;;;;;;;;;;;;29.28;68.23;100996.56;5021285;28;66341;-36
2021/10/25 03:08:48;;;;;;;;;;;;;;;29.30;68.19;100991.75;5011137;28;69893;-36
2021/10/25 03:11:24;;;;;;;;;;;;;;;29.32;67.81;100997.78;5021777;28;67000;-36
2021/10/25 03:13:56;;;;;;;;;;;;;;;29.33;67.74;100994.03;5019450;28;70664;-35
2021/10/25 03:16:33;;;;;;;;;;;;;;;29.36;67.75;100982.00;5033992;28;66617;-36
2021/10/25 03:19:06;;;;;;;;;;;;;;;29.38;68.04;100980.75;5025015;28;69472;-37
2021/10/25 03:21:40;;;;;;;;;;;;;;;29.39;67.62;100976.16;5027759;28;66595;-36
2021/10/25 03:24:11;;;;;;;;;;;;;;;29.42;67.94;100962.25;5024430;28;69392;-36
2021/10/25 03:26:44;;;;;;;;;;;;;;;29.44;67.53;100962.03;5007333;28;66544;-36
2021/10/25 03:29:16;;;;;;;;;;;;;;;29.46;67.45;100965.38;4981947;28;70932;-36
2021/10/25 03:31:48;;;;;;;;;;;;;;;29.48;67.90;100960.59;5001652;28;65675;-36
2021/10/25 03:34:20;;;;;;;;;;;;;;;29.50;67.84;100953.09;5004066;28;70273;-36
2021/10/25 03:36:52;;;;;;;;;;;;;;;29.54;67.89;100946.25;5006166;28;66389;-36
2021/10/25 03:39:25;;;;;;;;;;;;;;;29.55;67.81;100942.50;5007167;28;69977;-36
2021/10/25 03:41:57;;;;;;;;;;;;;;;29.58;67.70;100958.28;5034661;28;65476;-35
2021/10/25 03:44:36;;;;;;;;;;;;;;;29.60;67.25;100945.41;5004077;28;69652;-36
2021/10/25 03:47:29;;;;;;;;;;;;;;;29.62;67.73;100948.72;5039231;28;66138;-37
2021/10/25 03:50:14;;;;;;;;;;;;;;;29.64;67.15;100941.25;5020865;28;70113;-37
2021/10/25 03:53:36;;;;;;;;;;;;;;;29.67;67.25;100940.84;5023297;28;67108;-37
2021/10/25 04:27:28;;;;;;;;;;;;;;;29.95;67.04;100861.28;5015563;28;66252;-37
2021/10/25 04:30:05;;;;;;;;;;;;;;;29.98;67.00;100855.47;5018188;28;70321;-36
2021/10/25 04:32:37;;;;;;;;;;;;;;;29.99;66.67;100857.97;5020598;28;66236;-36
2021/10/25 04:35:20;;;;;;;;;;;;;;;30.02;66.34;100840.47;5012008;28;70248;-36
2021/10/25 04:38:17;;;;;;;;;;;;;;;30.06;66.78;100841.69;5016912;28;66485;-35
2021/10/25 04:40:48;;;;;;;;;;;;;;;30.07;66.39;100837.94;5023388;28;71202;-37
2021/10/25 04:43:18;;;;;;;;;;;;;;;30.09;66.20;100841.28;5001491;28;66191;-36
2021/10/25 04:45:49;;;;;;;;;;;;;;;30.12;66.77;100826.50;5015988;28;69718;-36
2021/10/25 04:48:19;;;;;;;;;;;;;;;30.13;66.24;100826.25;5020887;28;66760;-36
2021/10/25 04:51:06;;;;;;;;;;;;;;;30.17;66.12;100832.91;5014334;28;69497;-36
2021/10/25 04:54:03;;;;;;;;;;;;;;;30.19;66.07;100824.56;5019426;28;66533;-36
2021/10/25 04:56:46;;;;;;;;;;;;;;;30.23;66.63;100825.84;5035709;28;70251;-36
2021/10/25 04:59:17;;;;;;;;;;;;;;;30.25;65.97;100827.25;5019957;28;66342;-35
2021/10/25 05:01:47;;;;;;;;;;;;;;;30.26;65.84;100820.81;5020431;28;70185;-36
2021/10/25 05:04:19;;;;;;;;;;;;;;;30.30;66.05;100809.53;5009097;28;66579;-36
2021/10/25 05:06:50;;;;;;;;;;;;;;;30.32;66.48;100802.03;5022459;28;69165;-36
2021/10/25 05:09:20;;;;;;;;;;;;;;;30.35;65.92;100801.59;5013817;28;66947;-36
2021/10/25 05:11:51;;;;;;;;;;;;;;;30.35;65.88;100796.19;5020441;28;70360;-36
2021/10/25 05:14:23;;;;;;;;;;;;;;;30.38;65.87;100795.75;5006906;28;66416;-36
2021/10/25 05:16:56;;;;;;;;;;;;;;;30.40;66.20;100793.66;4986098;28;69172;-36
2021/10/25 05:19:27;;;;;;;;;;;;;;;30.42;66.44;100794.25;4996487;28;66538;-36
2021/10/25 05:22:07;;;;;;;;;;;;;;;30.44;66.00;100792.16;5002606;28;69875;-36
2021/10/25 05:24:42;;;;;;;;;;;;;;;30.45;66.07;100785.69;5022709;28;66888;-36
2021/10/25 05:27:15;;;;;;;;;;;;;;;30.47;65.92;100783.59;5014534;28;69970;-36
2021/10/25 05:29:46;;;;;;;;;;;;;;;30.49;66.17;100776.91;5011655;28;66129;-36
2021/10/25 05:32:17;;;;;;;;;;;;;;;30.51;65.78;100771.31;5014417;28;69592;-37
2021/10/25 05:34:49;;;;;;;;;;;;;;;30.53;66.07;100774.59;5010227;28;66633;-36
2021/10/25 05:37:20;;;;;;;;;;;;;;;30.55;65.81;100772.50;5010141;28;69030;-36
2021/10/25 05:39:51;;;;;;;;;;;;;;;30.57;66.38;100773.13;5012236;28;65771;-38
2021/10/25 05:42:25;;;;;;;;;;;;;;;30.57;66.35;100759.59;5012454;28;70680;-35
2021/10/25 05:44:57;;;;;;;;;;;;;;;30.62;66.33;100764.31;5027203;28;66504;-37
2021/10/25 05:47:28;;;;;;;;;;;;;;;30.62;65.97;100759.75;5001658;28;71044;-36
2021/10/25 05:50:02;;;;;;;;;;;;;;;30.64;65.72;100757.63;5009890;28;66338;-38
2021/10/25 05:52:33;;;;;;;;;;;;;;;30.66;65.79;100755.53;4983913;28;69732;-36
2021/10/25 05:55:05;;;;;;;;;;;;;;;30.68;65.74;100747.22;5007049;28;65305;-36
2021/10/25 05:57:44;;;;;;;;;;;;;;;30.70;65.62;100747.78;5011677;28;69158;-38
2021/10/25 06:00:20;;;;;;;;;;;;;;;30.71;66.21;100736.75;4994390;28;66400;-36
2021/10/25 06:02:55;;;;;;;;;;;;;;;30.73;65.67;100723.84;5010939;28;69444;-36
2021/10/25 06:05:30;;;;;;;;;;;;;;;30.75;65.93;100726.28;5015463;28;65433;-36
2021/10/25 06:08:02;;;;;;;;;;;;;;;30.76;66.10;100714.44;5010567;28;70052;-36
2021/10/25 06:10:41;;;;;;;;;;;;;;;30.78;65.86;100708.78;4988040;28;66358;-36
2021/10/25 06:16:25;;;;;;;;;;;;;;;30.81;65.79;100706.47;4997960;28;66669;-36
2021/10/25 06:19:02;;;;;;;;;;;;;;;30.84;65.52;100702.50;5014674;28;70006;-36
2021/10/25 06:21:33;;;;;;;;;;;;;;;30.84;66.21;100695.22;4997281;28;66179;-36
2021/10/25 06:24:07;;;;;;;;;;;;;;;30.85;65.70;100691.44;5007119;28;70636;-36
2021/10/25 06:26:50;;;;;;;;;;;;;;;30.88;65.60;100692.88;5003630;28;66116;-36
2021/10/25 06:29:21;;;;;;;;;;;;;;;30.88;65.45;100692.88;5013796;28;70766;-36
2021/10/25 06:31:53;;;;;;;;;;;;;;;30.91;65.61;100689.72;5012233;28;66275;-36
2021/10/25 06:34:32;;;;;;;;;;;;;;;30.93;65.69;100687.63;5010793;28;69355;-36
2021/10/25 06:37:27;;;;;;;;;;;;;;;30.94;65.59;100681.13;5009473;28;66332;-36
2021/10/25 06:40:07;;;;;;;;;;;;;;;30.97;65.57;100679.88;4998654;28;69210;-38
2021/10/25 06:42:42;;;;;;;;;;;;;;;30.98;65.52;100674.22;5014024;28;66635;-38
2021/10/25 06:45:17;;;;;;;;;;;;;;;31.00;65.94;100680.22;5013174;28;69595;-36
2021/10/25 06:47:51;;;;;;;;;;;;;;;31.02;65.60;100670.00;4997787;28;66584;-36
2021/10/25 06:50:26;;;;;;;;;;;;;;;31.03;65.96;100668.94;4996084;28;69923;-36
2021/10/25 06:53:02;;;;;;;;;;;;;;;31.06;65.31;100663.06;5008720;28;67500;-36
2021/10/25 06:55:46;;;;;;;;;;;;;;;31.07;65.59;100670.16;5012842;28;69633;-35
2021/10/25 06:58:21;;;;;;;;;;;;;;;31.10;65.70;100658.88;4996900;28;65351;-36
2021/10/25 07:00:57;;;;;;;;;;;;;;;31.12;65.51;100643.22;5003327;28;70302;-38
2021/10/25 07:03:30;;;;;;;;;;;;;;;31.13;65.86;100647.56;5000660;28;66873;-37
2021/10/25 07:06:03;;;;;;;;;;;;;;;31.16;65.99;100646.28;5009723;28;70078;-36
2021/10/25 07:08:36;;;;;;;;;;;;;;;31.19;65.37;100647.72;5012715;28;66540;-37
2021/10/25 07:11:11;;;;;;;;;;;;;;;31.19;65.51;100645.81;5009317;28;70325;-36
2021/10/25 07:13:48;;;;;;;;;;;;;;;31.22;65.64;100649.97;5012049;28;66447;-36
2021/10/25 07:16:26;;;;;;;;;;;;;;;31.22;65.73;100634.53;5013060;28;69555;-36
2021/10/25 08:05:17;;;;;;;;;;;;;;;31.35;65.73;100633.53;5025688;28;65777;-36
2021/10/25 08:08:40;;;;;;;;;;;;;;;31.35;65.65;100625.41;4995629;28;70003;-37
2021/10/25 08:11:09;;;;;;;;;;;;;;;31.37;65.38;100634.16;5004873;28;67112;-36
2021/10/25 08:14:00;;;;;;;;;;;;;;;31.38;65.26;100623.09;5003998;28;69999;-37
2021/10/25 08:16:43;;;;;;;;;;;;;;;31.39;65.27;100624.72;5009624;28;65967;-36
2021/10/25 08:19:25;;;;;;;;;;;;;;;31.42;65.27;100617.19;5006962;28;69168;-36
2021/10/25 08:22:02;;;;;;;;;;;;;;;31.41;65.90;100621.81;5004838;28;66457;-36
2021/10/25 08:24:36;;;;;;;;;;;;;;;31.41;65.55;100620.97;5012747;28;70138;-36
2021/10/25 08:27:27;;;;;;;;;;;;;;;31.42;65.33;100623.44;5000372;28;66398;-36
2021/10/25 08:30:01;;;;;;;;;;;;;;;31.44;65.25;100626.75;5014450;28;70052;-36
2021/10/25 08:35:24;;;;;;;;;;;;;;;31.43;65.43;100622.41;5008303;28;69675;-36
2021/10/25 08:41:10;;;;;;;;;;;;;;;31.48;65.27;100613.56;5006218;28;69491;-37
2021/10/25 08:43:46;;;;;;;;;;;;;;;31.50;65.34;100617.69;5008213;28;65578;-37
2021/10/25 08:46:17;;;;;;;;;;;;;;;31.51;65.41;100616.66;5011693;28;70494;-37
2021/10/25 08:48:55;;;;;;;;;;;;;;;31.54;65.67;100610.78;4995276;28;65316;-37
2021/10/25 08:51:26;;;;;;;;;;;;;;;31.57;65.67;100610.31;5014621;28;70298;-37
2021/10/25 08:53:58;;;;;;;;;;;;;;;31.60;65.29;100619.88;5014005;28;66381;-37
2021/10/25 08:56:31;;;;;;;;;;;;;;;31.60;65.59;100615.25;5016433;28;70725;-37
2021/10/25 08:59:09;;;;;;;;;;;;;;;31.64;65.32;100620.22;5005927;28;65853;-37
2021/10/25 09:01:41;;;;;;;;;;;;;;;31.64;65.37;100614.78;5000841;28;70288;-36
2021/10/25 09:04:26;;;;;;;;;;;;;;;31.65;65.04;100617.28;4986333;28;66673;-36
2021/10/25 09:07:03;;;;;;;;;;;;;;;31.66;65.49;100618.13;5014472;28;70070;-36
2021/10/25 09:09:34;;;;;;;;;;;;;;;31.67;64.98;100608.91;5016174;28;66506;-36
2021/10/25 09:12:08;;;;;;;;;;;;;;;31.67;65.05;100608.91;5007209;28;69974;-36
2021/10/25 09:14:50;;;;;;;;;;;;;;;31.68;65.34;100605.97;5015320;28;66322;-36
2021/10/25 09:17:24;;;;;;;;;;;;;;;31.68;64.62;100600.56;5014792;28;70326;-36
2021/10/25 09:20:05;;;;;;;;;;;;;;;31.71;64.71;100604.69;5015316;28;66291;-36
2021/10/25 09:22:37;;;;;;;;;;;;;;;31.74;64.93;100593.38;5016404;28;69881;-36
2021/10/25 09:25:10;;;;;;;;;;;;;;;31.75;64.68;100600.44;5029429;28;66571;-36
2021/10/25 09:27:48;;;;;;;;;;;;;;;31.76;64.40;100602.94;5015281;28;69353;-36
2021/10/25 09:30:40;;;;;;;;;;;;;;;31.78;64.88;100599.97;5014957;28;65734;-36
2021/10/25 09:33:19;;;;;;;;;;;;;;;31.78;64.57;100603.50;5016220;28;70123;-36
2021/10/25 09:36:14;;;;;;;;;;;;;;;31.79;64.46;100607.88;5012355;28;66460;-36
2021/10/25 09:48:58;;;;;;;;;;;;;;;31.81;64.85;100615.78;5012494;28;66779;-36
2021/10/25 09:49:30;;;;;;;;;;;;;;;31.82;64.27;100614.72;5023301;28;70060;-36
2021/10/25 09:52:02;;;;;;;;;;;;;;;31.82;64.34;100607.41;5001971;28;66806;-36
2021/10/25 09:54:35;;;;;;;;;;;;;;;31.82;64.80;100617.44;5011191;28;69634;-36
2021/10/25 09:57:13;;;;;;;;;;;;;;;31.82;64.26;100617.44;5009747;28;66201;-36
2021/10/25 10:00:11;;;;;;;;;;;;;;;31.81;64.34;100622.03;5009261;28;69931;-36
2021/10/25 10:02:45;;;;;;;;;;;;;;;31.81;64.16;100616.59;5016699;28;68001;-36
2021/10/25 10:05:36;;;;;;;;;;;;;;;31.81;64.64;100623.91;5011505;28;70023;-36
2021/10/25 10:08:09;;;;;;;;;;;;;;;31.81;64.01;100627.44;5030337;28;65578;-36
2021/10/25 10:10:39;;;;;;;;;;;;;;;31.80;64.50;100624.97;5012758;28;69301;-36
2021/10/25 10:13:19;;;;;;;;;;;;;;;31.82;64.32;100625.59;5005999;28;66327;-37
2021/10/25 10:16:10;;;;;;;;;;;;;;;31.79;64.41;100634.19;5015296;28;69338;-36
2021/10/25 10:18:50;;;;;;;;;;;;;;;31.79;64.22;100628.75;5011152;28;65860;-36
2021/10/25 10:21:43;;;;;;;;;;;;;;;31.78;64.10;100638.75;4989257;28;69944;-36
2021/10/25 10:24:30;;;;;;;;;;;;;;;31.78;64.46;100637.94;5015071;28;66796;-36
2021/10/25 10:27:04;;;;;;;;;;;;;;;31.78;64.20;100640.66;5006724;28;70146;-36
2021/10/25 10:29:42;;;;;;;;;;;;;;;31.79;63.85;100642.31;5013407;28;66468;-37
2021/10/25 10:32:22;;;;;;;;;;;;;;;31.77;64.48;100647.16;5013361;28;69932;-36
2021/10/25 10:34:53;;;;;;;;;;;;;;;31.75;64.16;100657.38;5015390;28;66146;-36
2021/10/25 10:38:02;;;;;;;;;;;;;;;31.45;66.96;100660.94;5004332;28;71514;-38
2021/10/25 10:40:43;;;;;;;;;;;;;;;31.32;67.53;100663.81;5008710;28;65577;-37
2021/10/25 10:43:22;;;;;;;;;;;;;;;31.26;68.40;100672.84;5003837;28;70441;-37
2021/10/25 10:46:17;;;;;;;;;;;;;;;31.22;69.14;100666.22;5006948;28;66588;-36
2021/10/25 10:48:56;;;;;;;;;;;;;;;31.16;69.14;100668.78;5009896;28;69982;-37
2021/10/25 10:51:28;;;;;;;;;;;;;;;31.15;69.89;100677.97;5015265;28;66557;-37
2021/10/25 10:54:11;;;;;;;;;;;;;;;31.13;69.82;100680.09;5012066;28;70248;-37
2021/10/25 10:56:54;;;;;;;;;;;;;;;31.09;70.17;100678.03;5013351;28;66433;-37
2021/10/25 10:59:36;;;;;;;;;;;;;;;31.05;70.48;100683.09;5013539;28;70491;-36
2021/10/25 11:02:16;;;;;;;;;;;;;;;31.02;70.50;100688.97;5013963;28;65738;-37
2021/10/25 11:04:50;;;;;;;;;;;;;;;31.01;70.85;100692.75;5010920;28;70042;-37
2021/10/25 11:07:20;;;;;;;;;;;;;;;30.99;70.94;100702.16;5007109;28;66485;-37
2021/10/25 11:09:59;;;;;;;;;;;;;;;30.97;71.07;100701.53;5005489;28;70576;-37
2021/10/25 11:12:39;;;;;;;;;;;;;;;30.95;71.47;100704.44;4999051;28;66510;-36
2021/10/25 11:15:12;;;;;;;;;;;;;;;30.96;72.15;100713.44;5014670;28;70305;-37
2021/10/25 11:17:44;;;;;;;;;;;;;;;30.94;72.13;100719.06;5014840;28;66771;-37
2021/10/25 11:20:15;;;;;;;;;;;;;;;30.92;71.88;100722.00;5013647;28;70410;-37
2021/10/25 11:22:46;;;;;;;;;;;;;;;30.90;72.30;100723.28;5022059;28;66606;-37
2021/10/25 11:25:20;;;;;;;;;;;;;;;30.90;72.50;100720.56;5009325;28;70502;-36
2021/10/25 11:27:53;;;;;;;;;;;;;;;30.88;72.47;100719.97;5013070;28;65526;-37
2021/10/25 11:30:24;;;;;;;;;;;;;;;30.86;72.43;100724.78;4998217;28;69726;-37
2021/10/25 11:32:55;;;;;;;;;;;;;;;30.86;72.37;100727.47;5010432;28;64918;-37
2021/10/25 11:35:28;;;;;;;;;;;;;;;30.86;72.47;100724.78;5011145;28;69348;-37
2021/10/25 11:38:03;;;;;;;;;;;;;;;30.84;72.39;100729.56;5011389;28;66844;-37
2021/10/25 11:40:34;;;;;;;;;;;;;;;30.84;72.80;100729.56;5013525;28;69537;-37
2021/10/25 11:43:06;;;;;;;;;;;;;;;30.83;72.96;100727.94;5009646;28;66434;-37
2021/10/25 11:45:37;;;;;;;;;;;;;;;30.80;72.41;100723.78;5011249;28;70043;-37
2021/10/25 11:48:08;;;;;;;;;;;;;;;30.78;72.85;100731.25;5016503;28;65523;-37
2021/10/25 11:50:39;;;;;;;;;;;;;;;30.78;72.98;100725.84;5011207;28;69999;-37
2021/10/25 11:53:11;;;;;;;;;;;;;;;30.77;72.84;100734.22;5011666;28;66974;-37
2021/10/25 11:55:42;;;;;;;;;;;;;;;30.73;72.19;100723.84;5009092;28;69556;-37
2021/10/25 11:58:14;;;;;;;;;;;;;;;30.71;71.08;100734.03;5013881;28;66542;-37
2021/10/25 12:00:49;;;;;;;;;;;;;;;30.69;70.82;100733.44;5009721;28;69200;-37
2021/10/25 12:03:27;;;;;;;;;;;;;;;30.67;70.76;100732.84;5006699;28;65969;-37
2021/10/25 12:05:59;;;;;;;;;;;;;;;30.63;70.16;100737.03;4998297;28;68884;-37
2021/10/25 12:08:30;;;;;;;;;;;;;;;30.62;69.75;100743.50;5012291;28;66673;-37
2021/10/25 12:11:02;;;;;;;;;;;;;;;30.44;70.02;100722.63;5008835;28;70408;-38
2021/10/25 12:13:32;;;;;;;;;;;;;;;30.58;69.29;100747.69;5013229;28;66418;-38
2021/10/25 12:16:09;;;;;;;;;;;;;;;30.57;69.25;100748.75;5011285;28;70033;-39
2021/10/25 12:18:40;;;;;;;;;;;;;;;30.57;69.03;100751.47;5013203;28;66740;-37
2021/10/25 12:21:13;;;;;;;;;;;;;;;30.55;69.38;100753.56;5012505;28;70949;-37
2021/10/25 12:23:47;;;;;;;;;;;;;;;30.55;69.38;100756.25;4992673;28;65167;-37
2021/10/25 12:26:18;;;;;;;;;;;;;;;30.54;68.97;100757.31;4993506;28;69143;-43
2021/10/25 12:28:57;;;;;;;;;;;;;;;30.54;68.89;100761.91;4993522;28;65461;-37
2021/10/25 12:31:45;;;;;;;;;;;;;;;30.54;68.69;100762.75;5013490;28;70569;-39
2021/10/25 12:34:51;;;;;;;;;;;;;;;30.51;69.32;100757.78;5021305;28;66108;-38
2021/10/25 12:37:29;;;;;;;;;;;;;;;30.52;68.72;100759.41;5002744;28;70405;-38
2021/10/25 12:40:15;;;;;;;;;;;;;;;30.50;68.48;100769.63;5009334;28;59287;-38
2021/10/25 12:42:47;;;;;;;;;;;;;;;30.48;68.67;100769.03;4995455;28;70283;-38
2021/10/25 12:45:20;;;;;;;;;;;;;;;30.47;68.95;100768.19;5008631;28;65955;-36
2021/10/25 12:47:58;;;;;;;;;;;;;;;30.45;69.03;100770.31;5011048;28;70108;-36
2021/10/25 12:50:32;;;;;;;;;;;;;;;30.44;68.82;100773.22;5008592;28;67295;-36
2021/10/25 12:53:04;;;;;;;;;;;;;;;30.44;68.92;100773.22;4994619;28;70117;-36
2021/10/25 12:55:52;;;;;;;;;;;;;;;30.44;68.43;100773.22;5006464;28;65724;-36
2021/10/25 12:58:28;;;;;;;;;;;;;;;30.41;68.38;100777.19;5012055;28;69767;-37
2021/10/25 13:01:11;;;;;;;;;;;;;;;30.41;68.81;100784.50;4994246;28;66971;-36
2021/10/25 13:03:48;;;;;;;;;;;;;;;30.41;69.81;100790.72;5014978;28;69926;-36
2021/10/25 13:06:19;;;;;;;;;;;;;;;30.42;70.02;100786.13;5015663;28;66434;-35
2021/10/25 13:08:57;;;;;;;;;;;;;;;30.40;69.30;100788.25;5004694;28;70270;-37
2021/10/25 13:11:28;;;;;;;;;;;;;;;30.43;70.64;100795.94;5016571;28;66218;-39
2021/10/25 13:14:00;;;;;;;;;;;;;;;30.47;70.79;100794.44;5011978;28;70880;-41
2021/10/25 13:16:41;;;;;;;;;;;;;;;30.46;70.61;100803.59;5025303;28;65016;-39
2021/10/25 13:19:18;;;;;;;;;;;;;;;30.48;70.74;100799.63;5007689;28;69931;-39
2021/10/25 13:22:05;;;;;;;;;;;;;;;30.47;70.30;100808.78;5013108;28;65725;-40
2021/10/25 13:24:36;;;;;;;;;;;;;;;30.46;70.71;100809.84;5011897;28;68989;-39
2021/10/25 13:27:07;;;;;;;;;;;;;;;30.50;71.28;100812.94;5012816;28;67357;-38
2021/10/25 13:29:43;;;;;;;;;;;;;;;30.53;71.30;100820.63;5012539;28;70183;-40
2021/10/25 13:32:21;;;;;;;;;;;;;;;30.54;71.56;100822.28;5008690;28;66025;-38
2021/10/25 13:34:54;;;;;;;;;;;;;;;30.54;71.75;100822.28;5012199;28;69972;-39
2021/10/25 13:37:27;;;;;;;;;;;;;;;30.54;72.11;100822.28;4992471;28;65736;-38
2021/10/25 13:40:07;;;;;;;;;;;;;;;30.56;72.42;100836.41;5016028;28;70292;-38
2021/10/25 13:42:44;;;;;;;;;;;;;;;30.57;72.36;100843.50;5014305;28;65302;-39
2021/10/25 13:45:15;;;;;;;;;;;;;;;30.56;72.65;100846.41;5012045;28;70744;-38
2021/10/25 13:47:52;;;;;;;;;;;;;;;30.56;71.90;100851.84;4989069;28;65487;-37
2021/10/25 13:50:26;;;;;;;;;;;;;;;30.55;71.62;100850.19;5013030;28;70395;-39
2021/10/25 13:52:58;;;;;;;;;;;;;;;30.53;71.55;100853.09;5016049;28;65961;-39
2021/10/25 13:55:31;;;;;;;;;;;;;;;30.38;69.68;100860.69;5009343;28;69915;-39
2021/10/25 13:58:03;;;;;;;;;;;;;;;30.25;68.55;100853.47;5017759;28;66741;-38
2021/10/25 14:00:35;;;;;;;;;;;;;;;30.12;67.75;100853.53;5012902;28;69779;-38
2021/10/25 14:03:06;;;;;;;;;;;;;;;30.01;66.15;100852.34;5014218;28;65526;-39
2021/10/25 14:05:38;;;;;;;;;;;;;;;29.91;65.55;100852.78;5017680;28;69733;-38
2021/10/25 14:08:15;;;;;;;;;;;;;;;29.73;64.66;100839.97;5010346;28;65670;-38
2021/10/25 14:10:53;;;;;;;;;;;;;;;29.77;63.91;100857.41;5016552;28;70030;-39
2021/10/25 14:18:54;;;;;;;;;;;;;;;29.59;62.39;100865.34;5016746;28;66112;-38
2021/10/25 14:21:36;;;;;;;;;;;;;;;29.51;61.60;100865.59;5027137;28;70138;-40
2021/10/25 14:24:13;;;;;;;;;;;;;;;29.46;61.13;100859.97;4998093;28;65520;-39
2021/10/25 14:26:51;;;;;;;;;;;;;;;29.38;60.42;100861.84;5017119;28;70417;-39
2021/10/25 14:29:23;;;;;;;;;;;;;;;29.30;60.07;100862.06;5010187;28;65932;-39
2021/10/25 14:31:54;;;;;;;;;;;;;;;29.23;58.99;100863.97;5009242;28;70024;-39
2021/10/25 14:34:26;;;;;;;;;;;;;;;29.18;58.44;100866.47;5016981;28;66283;-39
2021/10/25 14:37:07;;;;;;;;;;;;;;;29.13;58.15;100864.38;5012950;28;69810;-39
2021/10/25 14:39:46;;;;;;;;;;;;;;;29.15;57.77;100858.78;5006118;28;65008;-39
2021/10/25 14:45:04;;;;;;;;;;;;;;;29.17;56.45;100871.03;5013739;28;65578;-39
2021/10/25 14:53:24;;;;;;;;;;;;;;;29.12;55.48;100859.19;5013375;28;68478;-38
2021/10/25 14:56:04;;;;;;;;;;;;;;;29.08;55.04;100855.25;5014333;28;65890;-38
2021/10/25 14:58:40;;;;;;;;;;;;;;;29.08;55.22;100855.25;5015089;28;70295;-39
2021/10/25 15:01:12;;;;;;;;;;;;;;;29.05;53.89;100859.19;5014880;28;65245;-38
2021/10/25 15:03:44;;;;;;;;;;;;;;;29.02;53.40;100856.03;5014110;28;68951;-39
2021/10/25 15:06:17;;;;;;;;;;;;;;;29.00;54.03;100858.94;5013822;28;66182;-39
2021/10/25 15:08:49;;;;;;;;;;;;;;;28.98;53.67;100860.22;5013876;28;70732;-39